Monadale, Texas
Current Conditions -  °F | °C
As of 3:35 PM on Thursday 27 Nov 2014 (Local Time) from KEDC Reporting Station
Clear Clear  
Wind Chill: 63°   Ceiling: Unl
Heat Index: 63°   Visibility: 10mi
Dew Point: 30°   Wind: 3mph
Humidity: 30%   Direction: 80°E
Pressure: 30.42"   Gusts: NA
Location:  30.5231°N, 97.5348°W
Report Text: KEDC 272135Z AUTO 08003KT 10SM CLR 17/M01 A3042 RMK AO2
Loading
Personal Weather Stations






























Interactive Weather Map New forecast layout! Learn more

10-Day Weather Forecast

Advertisements
Track Severe Weather on mobile